createdAt,value
2018-03-06T00:02:01.429Z,0.60
2018-03-06T00:04:29.006Z,0.60
2018-03-06T00:06:56.599Z,0.60
2018-03-06T00:09:24.220Z,0.70
2018-03-06T00:11:51.802Z,0.70
2018-03-06T00:14:19.418Z,0.60
2018-03-06T00:16:47.030Z,0.60
2018-03-06T00:19:14.663Z,0.60
2018-03-06T00:21:42.267Z,0.70
2018-03-06T00:24:09.873Z,0.70
2018-03-06T00:26:37.499Z,0.60
2018-03-06T00:29:05.890Z,0.70
2018-03-06T00:31:33.494Z,0.60
2018-03-06T00:34:01.114Z,0.60
2018-03-06T00:36:28.747Z,0.60
2018-03-06T00:38:56.318Z,0.50
2018-03-06T00:41:23.944Z,0.50
2018-03-06T00:43:51.538Z,0.40
2018-03-06T00:46:19.169Z,0.30
2018-03-06T00:48:46.757Z,0.30
2018-03-06T00:51:14.383Z,0.40
2018-03-06T00:53:42.010Z,0.40
2018-03-06T00:56:09.649Z,0.40
2018-03-06T00:58:37.259Z,0.30
2018-03-06T01:01:04.846Z,0.30
2018-03-06T01:03:32.482Z,0.40
2018-03-06T01:06:00.089Z,0.50
2018-03-06T01:08:27.736Z,0.50
2018-03-06T01:10:55.310Z,0.40
2018-03-06T01:13:22.899Z,0.50
2018-03-06T01:15:51.282Z,0.60
2018-03-06T01:18:18.884Z,0.60
2018-03-06T01:20:46.518Z,0.50
2018-03-06T01:23:14.113Z,0.50
2018-03-06T01:25:41.746Z,0.50
2018-03-06T01:28:09.343Z,0.50
2018-03-06T01:30:36.967Z,0.50
2018-03-06T01:33:04.551Z,0.50
2018-03-06T01:35:32.173Z,0.50
2018-03-06T01:37:59.802Z,0.60
2018-03-06T01:40:28.162Z,0.60
2018-03-06T01:42:55.799Z,0.60
2018-03-06T01:45:23.392Z,0.60
2018-03-06T01:47:50.982Z,0.70
2018-03-06T01:50:19.391Z,0.70
2018-03-06T01:52:46.987Z,0.70
2018-03-06T01:55:16.518Z,0.70
2018-03-06T01:57:44.101Z,0.60
2018-03-06T02:00:11.733Z,0.60
2018-03-06T02:02:39.332Z,0.50
2018-03-06T02:05:06.961Z,0.50
2018-03-06T02:07:34.586Z,0.40
2018-03-06T02:10:02.943Z,0.20
2018-03-06T02:12:30.558Z,0.20
2018-03-06T02:14:58.190Z,0.20
2018-03-06T02:17:25.779Z,0.20
2018-03-06T02:19:53.366Z,0.10
2018-03-06T02:22:21.006Z,0.10
2018-03-06T02:24:48.606Z,0.10
2018-03-06T02:27:16.195Z,0.10
2018-03-06T02:29:43.826Z,0.10
2018-03-06T02:32:12.256Z,0.00
2018-03-06T02:34:39.846Z,0.00
2018-03-06T02:37:08.217Z,-0.20
2018-03-06T02:39:35.855Z,-0.20
2018-03-06T02:42:03.471Z,-0.10
2018-03-06T02:44:31.116Z,-0.10
2018-03-06T02:46:59.474Z,0.10
2018-03-06T02:49:27.068Z,0.00
2018-03-06T02:51:54.724Z,0.10
2018-03-06T02:54:23.076Z,0.10
2018-03-06T02:56:50.670Z,0.10
2018-03-06T02:59:18.291Z,0.10
2018-03-06T03:01:45.956Z,0.20
2018-03-06T03:04:13.542Z,0.20
2018-03-06T03:06:41.898Z,0.30
2018-03-06T03:09:09.531Z,0.30
2018-03-06T03:11:37.116Z,0.30
2018-03-06T03:14:04.747Z,0.40
2018-03-06T03:16:32.338Z,0.30
2018-03-06T03:18:59.986Z,0.40
2018-03-06T03:21:27.618Z,0.30
2018-03-06T03:23:55.267Z,0.30
2018-03-06T03:26:22.863Z,0.20
2018-03-06T03:28:50.455Z,0.20
2018-03-06T03:31:18.082Z,0.20
2018-03-06T03:33:45.675Z,0.20
2018-03-06T03:36:13.283Z,0.20
2018-03-06T03:38:41.094Z,0.20
2018-03-06T03:41:08.678Z,0.20
2018-03-06T03:43:36.307Z,0.20
2018-03-06T03:46:03.898Z,0.20
2018-03-06T03:48:31.529Z,0.20
2018-03-06T03:50:59.128Z,0.10
2018-03-06T03:53:26.721Z,0.10
2018-03-06T03:55:54.381Z,0.10
2018-03-06T03:58:21.998Z,0.10
2018-03-06T04:00:49.632Z,0.10
2018-03-06T04:03:17.269Z,0.10
2018-03-06T04:05:44.887Z,0.00
2018-03-06T04:08:12.482Z,0.10
2018-03-06T04:10:40.132Z,0.10
2018-03-06T04:13:07.727Z,0.10
2018-03-06T04:15:35.334Z,0.10
2018-03-06T04:18:02.971Z,0.10
2018-03-06T04:20:30.571Z,0.10
2018-03-06T04:22:58.165Z,0.10
2018-03-06T04:25:25.806Z,0.10
2018-03-06T04:27:54.161Z,0.10
2018-03-06T04:30:21.744Z,0.10
2018-03-06T04:32:50.156Z,0.00
2018-03-06T04:35:17.830Z,0.00
2018-03-06T04:37:45.512Z,0.00
2018-03-06T04:40:13.138Z,-0.10
2018-03-06T04:42:40.753Z,-0.10
2018-03-06T04:45:08.391Z,-0.10
2018-03-06T04:47:35.990Z,-0.10
2018-03-06T04:50:03.628Z,-0.10
2018-03-06T04:52:31.230Z,-0.10
2018-03-06T04:54:58.868Z,0.00
2018-03-06T04:57:26.449Z,0.00
2018-03-06T04:59:54.062Z,0.10
2018-03-06T05:02:21.682Z,0.10
2018-03-06T05:04:49.307Z,0.00
2018-03-06T05:07:16.953Z,0.00
2018-03-06T05:09:45.429Z,0.00
2018-03-06T05:12:13.070Z,0.00
2018-03-06T05:14:40.659Z,0.00
2018-03-06T05:17:08.333Z,0.10
2018-03-06T05:19:35.935Z,0.10
2018-03-06T05:22:03.523Z,0.00
2018-03-06T05:24:31.153Z,0.00
2018-03-06T05:26:58.778Z,0.00
2018-03-06T05:29:26.398Z,0.00
2018-03-06T05:31:53.986Z,0.00
2018-03-06T05:34:21.611Z,0.00
2018-03-06T05:36:49.258Z,-0.10
2018-03-06T05:39:16.858Z,-0.10
2018-03-06T05:41:44.454Z,-0.20
2018-03-06T05:44:12.874Z,-0.20
2018-03-06T05:46:40.470Z,-0.30
2018-03-06T05:49:08.079Z,-0.30
2018-03-06T05:51:35.702Z,-0.30
2018-03-06T05:54:03.307Z,-0.40
2018-03-06T05:56:31.710Z,-0.50
2018-03-06T05:58:59.310Z,-0.50
2018-03-06T06:01:26.927Z,-0.50
2018-03-06T06:03:54.535Z,-0.50
2018-03-06T06:06:22.166Z,-0.40
2018-03-06T06:08:49.768Z,-0.40
2018-03-06T06:11:17.431Z,-0.50
2018-03-06T06:13:45.019Z,-0.50
2018-03-06T06:16:12.645Z,-0.50
2018-03-06T06:18:40.319Z,-0.40
2018-03-06T06:21:07.932Z,-0.40
2018-03-06T06:23:35.557Z,-0.40
2018-03-06T06:26:03.923Z,-0.50
2018-03-06T06:28:31.490Z,-0.50
2018-03-06T06:30:59.095Z,-0.50
2018-03-06T06:33:26.807Z,-0.50
2018-03-06T06:35:54.379Z,-0.40
2018-03-06T06:38:21.982Z,-0.40
2018-03-06T06:40:49.562Z,-0.30
2018-03-06T06:43:17.171Z,-0.30
2018-03-06T06:45:44.770Z,-0.30
2018-03-06T06:48:12.394Z,-0.30
2018-03-06T06:50:39.993Z,-0.30
2018-03-06T06:53:07.578Z,-0.40
2018-03-06T06:55:35.194Z,-0.40
2018-03-06T06:58:03.552Z,-0.30
2018-03-06T07:00:31.162Z,-0.30
2018-03-06T07:02:58.778Z,-0.30
2018-03-06T07:05:26.422Z,-0.30
2018-03-06T07:07:53.986Z,-0.30
2018-03-06T07:10:21.601Z,-0.30
2018-03-06T07:12:49.219Z,-0.20
2018-03-06T07:15:16.860Z,-0.20
2018-03-06T07:17:44.445Z,-0.20
2018-03-06T07:20:12.149Z,-0.20
2018-03-06T07:22:39.764Z,-0.10
2018-03-06T07:25:07.355Z,0.00
2018-03-06T07:27:34.934Z,0.20
2018-03-06T07:30:02.569Z,0.20
2018-03-06T07:32:31.008Z,0.40
2018-03-06T07:34:58.577Z,0.40
2018-03-06T07:37:26.216Z,0.50
2018-03-06T07:39:53.898Z,0.60
2018-03-06T07:42:21.481Z,0.70
2018-03-06T07:44:49.121Z,0.70
2018-03-06T07:47:16.723Z,0.80
2018-03-06T07:49:44.333Z,0.80
2018-03-06T07:52:11.944Z,0.90
2018-03-06T07:54:39.543Z,0.90
2018-03-06T07:57:07.148Z,1.00
2018-03-06T07:59:34.797Z,1.00
2018-03-06T08:02:02.377Z,1.10
2018-03-06T08:04:30.141Z,1.10
2018-03-06T08:06:57.779Z,1.20
2018-03-06T08:09:25.386Z,1.20
2018-03-06T08:11:53.142Z,1.30
2018-03-06T08:14:20.744Z,1.40
2018-03-06T08:16:48.314Z,1.50
2018-03-06T08:19:15.948Z,1.60
2018-03-06T08:21:43.531Z,1.80
2018-03-06T08:24:11.141Z,1.90
2018-03-06T08:26:39.477Z,2.10
2018-03-06T08:29:07.247Z,2.00
2018-03-06T08:31:34.911Z,2.10
2018-03-06T08:34:02.523Z,2.20
2018-03-06T08:36:30.913Z,2.30
2018-03-06T08:38:58.487Z,2.30
2018-03-06T08:41:26.116Z,2.40
2018-03-06T08:43:54.619Z,2.60
2018-03-06T08:46:22.228Z,2.60
2018-03-06T08:48:49.802Z,2.70
2018-03-06T08:51:17.418Z,2.80
2018-03-06T08:53:45.046Z,2.80
2018-03-06T08:56:13.418Z,3.00
2018-03-06T08:58:41.036Z,3.00
2018-03-06T09:01:08.615Z,3.10
2018-03-06T09:03:36.228Z,3.20
2018-03-06T09:06:03.803Z,3.40
2018-03-06T09:08:31.794Z,3.60
2018-03-06T09:10:59.496Z,3.70
2018-03-06T09:13:27.117Z,3.80
2018-03-06T09:15:54.860Z,4.00
2018-03-06T09:18:22.433Z,4.10
2018-03-06T09:20:50.044Z,4.30
2018-03-06T09:23:18.474Z,4.70
2018-03-06T09:25:46.109Z,4.60
2018-03-06T09:28:13.677Z,4.90
2018-03-06T09:30:41.688Z,5.10
2018-03-06T09:33:09.331Z,5.30
2018-03-06T09:35:36.934Z,5.40
2018-03-06T09:38:04.535Z,5.60
2018-03-06T09:40:32.108Z,5.80
2018-03-06T09:42:59.710Z,5.90
2018-03-06T09:45:27.376Z,6.00
2018-03-06T09:47:54.978Z,6.20
2018-03-06T09:50:22.573Z,6.30
2018-03-06T09:52:52.614Z,6.50
2018-03-06T09:55:24.361Z,6.80
2018-03-06T09:57:53.475Z,6.80
2018-03-06T10:00:23.255Z,6.80
2018-03-06T10:02:55.162Z,6.90
2018-03-06T10:05:22.935Z,6.90
2018-03-06T10:07:51.298Z,7.00
2018-03-06T10:10:18.939Z,7.00
2018-03-06T10:12:46.555Z,7.10
2018-03-06T10:15:14.191Z,7.30
2018-03-06T10:17:42.399Z,7.40
2018-03-06T10:20:10.083Z,7.50
2018-03-06T10:22:40.344Z,7.60
2018-03-06T10:25:10.390Z,7.60
2018-03-06T10:27:38.189Z,7.70
2018-03-06T10:30:07.975Z,7.80
2018-03-06T10:32:36.099Z,7.80
2018-03-06T10:35:04.177Z,7.90
2018-03-06T10:37:31.852Z,7.90
2018-03-06T10:39:59.469Z,8.00
2018-03-06T10:42:27.076Z,8.10
2018-03-06T10:44:54.735Z,8.10
2018-03-06T10:47:22.413Z,8.10
2018-03-06T10:49:50.788Z,8.10
2018-03-06T10:52:19.160Z,8.10
2018-03-06T10:54:47.567Z,8.00
2018-03-06T10:57:15.168Z,8.00
2018-03-06T10:59:42.835Z,8.00
2018-03-06T11:02:15.228Z,8.10
2018-03-06T11:04:42.870Z,8.20
2018-03-06T11:07:10.434Z,8.20
2018-03-06T11:09:38.049Z,8.30
2018-03-06T11:12:05.626Z,8.30
2018-03-06T11:14:33.195Z,8.40
2018-03-06T11:17:00.798Z,8.50
2018-03-06T11:19:28.401Z,8.50
2018-03-06T11:21:55.971Z,8.60
2018-03-06T11:24:23.582Z,8.60
2018-03-06T11:26:51.191Z,8.70
2018-03-06T11:29:18.749Z,8.70
2018-03-06T11:31:46.371Z,8.80
2018-03-06T11:34:13.942Z,8.80
2018-03-06T11:36:42.274Z,8.90
2018-03-06T11:39:09.881Z,8.90
2018-03-06T11:41:37.484Z,8.90
2018-03-06T11:44:05.045Z,9.00
2018-03-06T11:46:32.641Z,9.00
2018-03-06T11:49:00.252Z,9.00
2018-03-06T11:51:27.823Z,9.00
2018-03-06T11:53:55.406Z,9.00
2018-03-06T11:56:23.016Z,9.00
2018-03-06T11:58:51.345Z,9.10
2018-03-06T12:01:18.955Z,9.00
2018-03-06T12:03:47.326Z,9.20
2018-03-06T12:06:14.894Z,9.20
2018-03-06T12:08:43.319Z,9.50
2018-03-06T12:11:10.868Z,9.40
2018-03-06T12:13:38.433Z,9.60
2018-03-06T12:16:06.039Z,9.70
2018-03-06T12:18:33.639Z,9.70
2018-03-06T12:21:01.201Z,9.80
2018-03-06T12:23:28.807Z,9.80
2018-03-06T12:25:56.407Z,9.90
2018-03-06T12:28:24.737Z,10.00
2018-03-06T12:30:52.351Z,10.00
2018-03-06T12:33:19.914Z,10.10
2018-03-06T12:35:47.532Z,10.20
2018-03-06T12:38:15.146Z,10.30
2018-03-06T12:40:42.715Z,10.30
2018-03-06T12:43:10.318Z,10.40
2018-03-06T12:45:37.903Z,10.40
2018-03-06T12:48:06.292Z,10.40
2018-03-06T12:50:33.882Z,10.40
2018-03-06T12:53:01.486Z,10.50
2018-03-06T12:55:29.878Z,10.70
2018-03-06T12:57:58.247Z,10.70
2018-03-06T13:00:25.863Z,10.70
2018-03-06T13:02:53.438Z,10.80
2018-03-06T13:05:21.046Z,10.90
2018-03-06T13:07:48.623Z,11.00
2018-03-06T13:10:16.236Z,11.10
2018-03-06T13:12:43.818Z,11.20
2018-03-06T13:15:11.431Z,11.30
2018-03-06T13:17:39.011Z,11.40
2018-03-06T13:20:06.622Z,11.40
2018-03-06T13:22:34.999Z,11.40
2018-03-06T13:25:03.350Z,11.30
2018-03-06T13:27:30.971Z,11.30
2018-03-06T13:29:58.538Z,11.20
2018-03-06T13:32:26.146Z,11.20
2018-03-06T13:34:53.767Z,11.10
2018-03-06T13:37:21.330Z,11.10
2018-03-06T13:39:48.955Z,11.10
2018-03-06T13:42:16.557Z,11.10
2018-03-06T13:44:44.119Z,11.20
2018-03-06T13:47:11.728Z,11.30
2018-03-06T13:49:40.056Z,11.40
2018-03-06T13:52:07.670Z,11.40
2018-03-06T13:54:35.280Z,11.40
2018-03-06T13:57:02.851Z,11.40
2018-03-06T13:59:30.463Z,11.50
2018-03-06T14:01:58.088Z,11.40
2018-03-06T14:04:25.660Z,11.40
2018-03-06T14:06:53.231Z,11.30
2018-03-06T14:09:21.609Z,11.20
2018-03-06T14:11:49.944Z,11.10
2018-03-06T14:14:17.556Z,11.10
2018-03-06T14:16:45.120Z,11.10
2018-03-06T14:19:12.722Z,11.10
2018-03-06T14:21:40.290Z,11.10
2018-03-06T14:24:07.902Z,11.10
2018-03-06T14:26:35.516Z,11.00
2018-03-06T14:29:03.903Z,10.90
2018-03-06T14:31:31.541Z,10.90
2018-03-06T14:33:59.110Z,10.90
2018-03-06T14:36:26.723Z,10.80
2018-03-06T14:38:55.059Z,10.80
2018-03-06T14:41:22.665Z,10.80
2018-03-06T14:43:50.229Z,10.80
2018-03-06T14:46:17.836Z,10.90
2018-03-06T14:48:45.442Z,10.90
2018-03-06T14:51:13.810Z,10.90
2018-03-06T14:53:41.410Z,10.90
2018-03-06T14:56:08.979Z,10.90
2018-03-06T14:58:36.583Z,11.00
2018-03-06T15:01:04.152Z,11.00
2018-03-06T15:03:31.763Z,11.00
2018-03-06T15:05:59.330Z,11.00
2018-03-06T15:08:26.943Z,11.00
2018-03-06T15:10:55.283Z,10.90
2018-03-06T15:13:22.870Z,10.90
2018-03-06T15:15:50.492Z,10.90
2018-03-06T15:18:18.070Z,10.80
2018-03-06T15:20:45.675Z,10.70
2018-03-06T15:23:13.306Z,10.70
2018-03-06T15:25:40.913Z,10.60
2018-03-06T15:28:08.519Z,10.60
2018-03-06T15:30:36.087Z,10.60
2018-03-06T15:33:03.720Z,10.60
2018-03-06T15:35:31.291Z,10.60
2018-03-06T15:37:59.184Z,10.60
2018-03-06T15:40:28.781Z,10.60
2018-03-06T15:42:57.046Z,10.50
2018-03-06T15:45:24.677Z,10.40
2018-03-06T15:47:52.295Z,10.30
2018-03-06T15:50:19.872Z,10.20
2018-03-06T15:52:47.483Z,10.10
2018-03-06T15:55:15.050Z,10.00
2018-03-06T15:57:42.619Z,9.90
2018-03-06T16:00:10.244Z,9.80
2018-03-06T16:02:37.806Z,9.70
2018-03-06T16:05:05.369Z,9.50
2018-03-06T16:07:32.974Z,9.40
2018-03-06T16:10:00.590Z,9.40
2018-03-06T16:12:28.209Z,9.30
2018-03-06T16:14:56.093Z,9.20
2018-03-06T16:17:23.696Z,9.10
2018-03-06T16:19:51.256Z,9.10
2018-03-06T16:22:18.856Z,9.00
2018-03-06T16:24:46.417Z,8.90
2018-03-06T16:27:14.027Z,8.80
2018-03-06T16:29:41.600Z,8.70
2018-03-06T16:32:09.207Z,8.70
2018-03-06T16:34:36.790Z,8.60
2018-03-06T16:37:04.419Z,8.50
2018-03-06T16:39:32.023Z,8.50
2018-03-06T16:41:59.954Z,8.40
2018-03-06T16:44:27.804Z,8.40
2018-03-06T16:46:55.936Z,8.30
2018-03-06T16:49:23.760Z,8.20
2018-03-06T16:51:51.378Z,8.10
2018-03-06T16:54:18.978Z,8.00
2018-03-06T16:56:46.594Z,7.80
2018-03-06T16:59:14.162Z,7.60
2018-03-06T17:01:41.731Z,7.40
2018-03-06T17:04:09.330Z,7.30
2018-03-06T17:06:36.957Z,7.20
2018-03-06T17:09:04.538Z,7.00
2018-03-06T17:11:32.135Z,6.80
2018-03-06T17:14:00.485Z,6.50
2018-03-06T17:16:28.092Z,6.50
2018-03-06T17:18:55.669Z,6.50
2018-03-06T17:21:23.278Z,6.40
2018-03-06T17:23:50.842Z,6.30
2018-03-06T17:26:18.446Z,6.10
2018-03-06T17:28:46.200Z,6.00
2018-03-06T17:31:13.807Z,5.90
2018-03-06T17:33:41.376Z,5.90
2018-03-06T17:36:08.978Z,5.80
2018-03-06T17:38:36.647Z,5.80
2018-03-06T17:41:04.311Z,5.80
2018-03-06T17:43:31.994Z,5.70
2018-03-06T17:45:59.607Z,5.70
2018-03-06T17:48:27.983Z,5.60
2018-03-06T17:50:55.561Z,5.60
2018-03-06T17:53:23.178Z,5.50
2018-03-06T17:55:50.753Z,5.50
2018-03-06T17:58:18.435Z,5.40
2018-03-06T18:00:46.035Z,5.30
2018-03-06T18:03:13.698Z,5.30
2018-03-06T18:05:41.321Z,5.20
2018-03-06T18:08:08.932Z,5.10
2018-03-06T18:10:36.590Z,5.10
2018-03-06T18:13:04.204Z,5.10
2018-03-06T18:15:32.537Z,5.10
2018-03-06T18:18:00.133Z,5.10
2018-03-06T18:20:27.738Z,5.00
2018-03-06T18:22:55.366Z,5.00
2018-03-06T18:25:22.969Z,5.00
2018-03-06T18:27:50.642Z,4.90
2018-03-06T18:30:18.250Z,4.90
2018-03-06T18:32:46.619Z,4.80
2018-03-06T18:35:14.219Z,4.80
2018-03-06T18:37:41.783Z,4.80
2018-03-06T18:40:09.860Z,4.70
2018-03-06T18:42:38.295Z,4.50
2018-03-06T18:45:05.869Z,4.50
2018-03-06T18:47:33.835Z,4.40
2018-03-06T18:50:04.270Z,4.40
2018-03-06T18:52:31.875Z,4.30
2018-03-06T18:54:59.445Z,4.30
2018-03-06T18:57:27.071Z,4.20
2018-03-06T19:03:09.150Z,4.10
2018-03-06T19:06:03.505Z,4.10
2018-03-06T19:08:31.083Z,4.00
2018-03-06T19:10:58.651Z,4.00
2018-03-06T19:13:26.276Z,4.10
2018-03-06T19:15:53.851Z,4.10
2018-03-06T19:18:21.453Z,4.10
2018-03-06T19:20:49.031Z,4.10
2018-03-06T19:23:16.630Z,4.00
2018-03-06T19:25:44.270Z,4.00
2018-03-06T19:28:12.421Z,4.00
2018-03-06T19:30:40.764Z,3.90
2018-03-06T19:33:08.404Z,3.90
2018-03-06T19:35:35.970Z,3.90
2018-03-06T19:38:03.583Z,3.80
2018-03-06T19:40:31.237Z,3.70
2018-03-06T19:42:59.083Z,3.70
2018-03-06T19:45:26.696Z,3.70
2018-03-06T19:47:54.264Z,3.70
2018-03-06T19:50:21.889Z,3.70
2018-03-06T19:52:49.517Z,3.60
2018-03-06T19:55:17.124Z,3.60
2018-03-06T19:57:46.642Z,3.60
2018-03-06T20:00:14.248Z,3.60
2018-03-06T20:02:41.862Z,3.50
2018-03-06T20:05:09.491Z,3.50
2018-03-06T20:07:37.112Z,3.50
2018-03-06T20:10:04.722Z,3.50
2018-03-06T20:12:32.302Z,3.40
2018-03-06T20:15:05.521Z,3.30
2018-03-06T20:17:33.104Z,3.20
2018-03-06T20:20:00.724Z,3.20
2018-03-06T20:22:29.096Z,3.10
2018-03-06T20:25:03.174Z,3.10
2018-03-06T20:27:30.774Z,3.10
2018-03-06T20:29:59.163Z,3.00
2018-03-06T20:32:32.337Z,3.00
2018-03-06T20:34:59.981Z,3.00
2018-03-06T20:37:27.612Z,2.90
2018-03-06T20:40:00.905Z,2.80
2018-03-06T20:42:28.505Z,2.80
2018-03-06T20:44:56.076Z,2.80
2018-03-06T20:47:23.684Z,2.70
2018-03-06T20:49:51.321Z,2.70
2018-03-06T20:52:18.969Z,2.60
2018-03-06T20:54:52.127Z,2.50
2018-03-06T20:57:19.748Z,2.30
2018-03-06T20:59:47.323Z,2.20
2018-03-06T21:02:17.601Z,2.20
2018-03-06T21:04:45.934Z,2.00
2018-03-06T21:07:13.539Z,2.00
2018-03-06T21:09:41.123Z,2.00
2018-03-06T21:12:08.725Z,2.00
2018-03-06T21:14:36.347Z,2.00
2018-03-06T21:17:05.438Z,2.00
2018-03-06T21:19:33.050Z,2.00
2018-03-06T21:22:00.655Z,1.90
2018-03-06T21:24:28.992Z,1.90
2018-03-06T21:26:56.600Z,1.90
2018-03-06T21:29:24.214Z,1.80
2018-03-06T21:31:51.800Z,1.80
2018-03-06T21:34:19.378Z,1.80
2018-03-06T21:36:46.986Z,1.70
2018-03-06T21:39:14.562Z,1.70
2018-03-06T21:41:42.184Z,1.70
2018-03-06T21:44:09.966Z,1.70
2018-03-06T21:46:37.543Z,1.70
2018-03-06T21:49:05.140Z,1.70
2018-03-06T21:51:33.523Z,1.80
2018-03-06T21:54:01.187Z,1.80
2018-03-06T21:56:28.753Z,1.80
2018-03-06T21:58:57.140Z,1.80
2018-03-06T22:01:24.716Z,1.80
2018-03-06T22:03:52.317Z,1.80
2018-03-06T22:06:19.905Z,1.80
2018-03-06T22:08:47.524Z,1.80
2018-03-06T22:11:15.141Z,1.90
2018-03-06T22:13:42.737Z,2.00
2018-03-06T22:16:10.346Z,2.00
2018-03-06T22:18:37.971Z,2.00
2018-03-06T22:21:05.551Z,2.10
2018-03-06T22:23:33.120Z,2.10
2018-03-06T22:26:00.752Z,2.20
2018-03-06T22:28:28.748Z,2.20
2018-03-06T22:30:58.010Z,2.20
2018-03-06T22:33:25.891Z,2.20
2018-03-06T22:35:53.508Z,2.20
2018-03-06T22:38:22.059Z,2.20
2018-03-06T22:40:50.030Z,2.10
2018-03-06T22:43:17.779Z,2.20
2018-03-06T22:45:45.358Z,2.20
2018-03-06T22:48:12.930Z,2.20
2018-03-06T22:50:40.570Z,2.10
2018-03-06T22:53:08.299Z,2.10
2018-03-06T22:55:35.876Z,2.10
2018-03-06T22:58:04.428Z,2.10
2018-03-06T23:00:32.129Z,2.10
2018-03-06T23:05:32.865Z,2.00
2018-03-06T23:08:00.439Z,2.00
2018-03-06T23:10:28.054Z,1.90
2018-03-06T23:12:56.387Z,1.90
2018-03-06T23:15:24.117Z,1.90
2018-03-06T23:17:51.870Z,1.90
2018-03-06T23:20:22.537Z,1.90
2018-03-06T23:22:51.286Z,1.90
2018-03-06T23:25:18.880Z,1.90
2018-03-06T23:27:46.669Z,2.00
2018-03-06T23:30:14.237Z,2.00
2018-03-06T23:32:41.963Z,2.00
2018-03-06T23:35:09.547Z,2.00
2018-03-06T23:37:37.195Z,2.00
2018-03-06T23:40:04.761Z,2.00
2018-03-06T23:42:32.390Z,1.90
2018-03-06T23:45:00.028Z,1.90
2018-03-06T23:47:28.402Z,1.80
2018-03-06T23:49:56.058Z,1.80
2018-03-06T23:52:24.006Z,1.80
2018-03-06T23:54:51.607Z,1.80
2018-03-06T23:57:20.191Z,1.70
2018-03-06T23:59:47.853Z,1.60
